Time,TemperatureF,DewpointF,PressureIn,WindDirection,WindDirectionDegrees,WindSpeedMPH,WindSpeedGustMPH,Humidity,HourlyPrecipIn,Conditions,Clouds,dailyrainin,SoftwareType,DateUTC
2013-08-31 00:03:00,53.6,47.3,31.20,SW,225,2.0,8.0,79,0.00,,,0.08,meteohub,2013-08-31 06:03:00,
2013-08-31 00:08:00,53.2,46.9,31.20,NW,315,1.0,8.0,79,0.00,,,0.00,meteohub,2013-08-31 06:08:00,
2013-08-31 00:13:00,52.9,46.6,31.20,North,0,2.0,8.0,79,0.00,,,0.00,meteohub,2013-08-31 06:13:00,
2013-08-31 00:19:00,52.3,46.4,31.21,West,270,2.0,3.0,80,0.00,,,0.00,meteohub,2013-08-31 06:19:00,
2013-08-31 00:24:00,52.0,46.0,31.21,North,0,2.0,3.0,80,0.00,,,0.00,meteohub,2013-08-31 06:24:00,
2013-08-31 00:29:00,51.6,46.2,31.20,East,90,0.0,3.0,82,0.00,,,0.00,meteohub,2013-08-31 06:29:00,
2013-08-31 00:34:00,51.4,46.2,31.21,North,0,2.0,3.0,82,0.00,,,0.00,meteohub,2013-08-31 06:34:00,
2013-08-31 00:39:00,51.1,45.9,31.21,North,0,1.0,3.0,82,0.00,,,0.00,meteohub,2013-08-31 06:39:00,
2013-08-31 00:44:00,50.9,45.9,31.21,NE,45,2.0,2.0,83,0.00,,,0.00,meteohub,2013-08-31 06:44:00,
2013-08-31 00:49:00,50.7,45.7,31.21,NE,45,3.0,3.0,83,0.00,,,0.00,meteohub,2013-08-31 06:49:00,
2013-08-31 00:54:00,50.7,45.7,31.21,NE,45,2.0,3.0,83,0.00,,,0.00,meteohub,2013-08-31 06:54:00,
2013-08-31 00:59:00,50.7,46.0,31.21,NE,45,2.0,3.0,84,0.00,,,0.00,meteohub,2013-08-31 06:59:00,
2013-08-31 01:04:00,50.7,46.0,31.20,North,0,0.0,3.0,84,0.00,,,0.00,meteohub,2013-08-31 07:04:00,
2013-08-31 01:09:00,50.7,46.0,31.20,North,0,1.0,3.0,84,0.00,,,0.00,meteohub,2013-08-31 07:09:00,
2013-08-31 01:14:00,50.5,45.9,31.20,South,180,0.0,2.0,84,0.00,,,0.00,meteohub,2013-08-31 07:14:00,
2013-08-31 01:19:00,50.4,45.7,31.20,NE,45,4.0,4.0,84,0.00,,,0.00,meteohub,2013-08-31 07:19:00,
2013-08-31 01:24:00,50.2,45.5,31.20,NE,45,4.0,4.0,84,0.00,,,0.00,meteohub,2013-08-31 07:24:00,
2013-08-31 01:29:00,50.4,46.0,31.19,NE,45,3.0,4.0,85,0.00,,,0.00,meteohub,2013-08-31 07:29:00,
2013-08-31 01:34:00,50.4,46.0,31.19,East,90,2.0,5.0,85,0.00,,,0.00,meteohub,2013-08-31 07:34:00,
2013-08-31 01:39:00,50.4,46.0,31.19,East,90,2.0,5.0,85,0.00,,,0.00,meteohub,2013-08-31 07:39:00,
2013-08-31 01:44:00,50.2,45.9,31.19,NE,45,0.0,3.0,85,0.00,,,0.00,meteohub,2013-08-31 07:44:00,
2013-08-31 01:49:00,50.2,45.9,31.19,North,0,2.0,3.0,85,0.00,,,0.00,meteohub,2013-08-31 07:49:00,
2013-08-31 01:54:00,50.0,45.7,31.19,North,0,3.0,3.0,85,0.00,,,0.00,meteohub,2013-08-31 07:54:00,
2013-08-31 01:59:00,50.0,45.7,31.19,NE,45,3.0,3.0,85,0.00,,,0.00,meteohub,2013-08-31 07:59:00,
2013-08-31 02:04:00,50.0,45.7,31.19,NE,45,2.0,3.0,85,0.00,,,0.00,meteohub,2013-08-31 08:04:00,
2013-08-31 02:09:00,50.2,45.9,31.19,NE,45,5.0,5.0,85,0.00,,,0.00,meteohub,2013-08-31 08:09:00,
2013-08-31 02:14:00,50.4,46.0,31.19,NE,45,8.0,8.0,85,0.00,,,0.00,meteohub,2013-08-31 08:14:00,
2013-08-31 02:19:00,50.7,46.8,31.19,East,90,6.0,8.0,86,0.00,,,0.00,meteohub,2013-08-31 08:19:00,
2013-08-31 02:24:00,50.9,46.9,31.19,East,90,6.0,8.0,86,0.00,,,0.00,meteohub,2013-08-31 08:24:00,
2013-08-31 02:29:00,51.1,46.8,31.18,East,90,4.0,11.0,85,0.00,,,0.00,meteohub,2013-08-31 08:29:00,
2013-08-31 02:34:00,50.9,46.2,31.18,NE,45,2.0,11.0,84,0.00,,,0.00,meteohub,2013-08-31 08:34:00,
2013-08-31 02:39:00,50.7,46.0,31.18,NE,45,2.0,11.0,84,0.00,,,0.00,meteohub,2013-08-31 08:39:00,
2013-08-31 02:44:00,50.4,45.7,31.18,North,0,1.0,7.0,84,0.00,,,0.00,meteohub,2013-08-31 08:44:00,
2013-08-31 02:49:00,50.2,45.1,31.18,North,0,4.0,4.0,83,0.00,,,0.00,meteohub,2013-08-31 08:49:00,
2013-08-31 02:54:00,49.6,45.0,31.18,North,0,2.0,3.0,84,0.00,,,0.00,meteohub,2013-08-31 08:54:00,
2013-08-31 02:59:00,49.6,45.0,31.18,NE,45,4.0,4.0,84,0.00,,,0.00,meteohub,2013-08-31 08:59:00,
2013-08-31 03:04:00,49.6,45.0,31.18,NE,45,2.0,4.0,84,0.00,,,0.00,meteohub,2013-08-31 09:04:00,
2013-08-31 03:10:00,49.3,44.6,31.17,NNW,338,4.0,4.0,84,0.00,,,0.00,meteohub,2013-08-31 09:10:00,
2013-08-31 03:15:00,49.1,44.4,31.18,NE,45,5.0,5.0,84,0.00,,,0.00,meteohub,2013-08-31 09:15:00,
2013-08-31 03:20:00,49.5,45.1,31.18,North,0,4.0,4.0,85,0.00,,,0.00,meteohub,2013-08-31 09:20:00,
2013-08-31 03:25:00,49.6,45.3,31.17,NW,315,4.0,5.0,85,0.00,,,0.00,meteohub,2013-08-31 09:25:00,
2013-08-31 03:30:00,49.6,45.3,31.17,North,0,4.0,5.0,85,0.00,,,0.00,meteohub,2013-08-31 09:30:00,
2013-08-31 03:35:00,48.9,44.2,31.17,North,0,4.0,5.0,84,0.00,,,0.00,meteohub,2013-08-31 09:35:00,
2013-08-31 03:40:00,48.4,43.7,31.17,NW,315,3.0,5.0,84,0.00,,,0.00,meteohub,2013-08-31 09:40:00,
2013-08-31 03:45:00,48.6,44.2,31.18,North,0,2.0,5.0,85,0.00,,,0.00,meteohub,2013-08-31 09:45:00,
2013-08-31 03:50:00,48.4,44.1,31.17,NE,45,0.0,4.0,85,0.00,,,0.00,meteohub,2013-08-31 09:50:00,
2013-08-31 03:55:00,48.0,44.1,31.17,NW,315,0.0,4.0,86,0.00,,,0.00,meteohub,2013-08-31 09:55:00,
2013-08-31 04:00:00,47.7,43.7,31.17,South,180,1.0,4.0,86,0.00,,,0.00,meteohub,2013-08-31 10:00:00,
2013-08-31 04:05:00,47.7,43.7,31.17,South,180,1.0,4.0,86,0.00,,,0.00,meteohub,2013-08-31 10:05:00,
2013-08-31 04:10:00,47.1,43.2,31.17,East,90,2.0,2.0,86,0.00,,,0.00,meteohub,2013-08-31 10:10:00,
2013-08-31 04:15:00,46.9,43.3,31.17,NW,315,2.0,2.0,87,0.00,,,0.00,meteohub,2013-08-31 10:15:00,
2013-08-31 04:20:00,46.9,43.3,31.16,NW,315,0.0,2.0,87,0.00,,,0.00,meteohub,2013-08-31 10:20:00,
2013-08-31 04:25:00,46.8,43.3,31.16,NE,45,1.0,2.0,88,0.00,,,0.00,meteohub,2013-08-31 10:25:00,
2013-08-31 04:30:00,46.8,43.3,31.16,NE,45,1.0,2.0,88,0.00,,,0.00,meteohub,2013-08-31 10:30:00,
2013-08-31 04:35:00,46.6,43.2,31.16,North,0,2.0,2.0,88,0.00,,,0.00,meteohub,2013-08-31 10:35:00,
2013-08-31 04:40:00,46.6,43.5,31.16,East,90,2.0,2.0,89,0.00,,,0.00,meteohub,2013-08-31 10:40:00,
2013-08-31 04:45:00,46.8,43.7,31.16,NE,45,3.0,3.0,89,0.00,,,0.00,meteohub,2013-08-31 10:45:00,
2013-08-31 04:50:00,47.3,44.6,31.16,NE,45,3.0,5.0,90,0.00,,,0.00,meteohub,2013-08-31 10:50:00,
2013-08-31 04:56:00,47.7,45.0,31.16,North,0,2.0,5.0,90,0.00,,,0.00,meteohub,2013-08-31 10:56:00,
2013-08-31 05:01:00,47.7,45.0,31.17,NW,315,2.0,5.0,90,0.00,,,0.00,meteohub,2013-08-31 11:01:00,
2013-08-31 05:06:00,47.5,44.4,31.16,NW,315,1.0,3.0,89,0.00,,,0.00,meteohub,2013-08-31 11:06:00,
2013-08-31 05:11:00,47.3,44.2,31.16,SE,135,1.0,3.0,89,0.00,,,0.00,meteohub,2013-08-31 11:11:00,
2013-08-31 05:16:00,47.3,44.6,31.16,NW,315,2.0,4.0,90,0.00,,,0.00,meteohub,2013-08-31 11:16:00,
2013-08-31 05:21:00,46.9,44.2,31.17,NW,315,2.0,4.0,90,0.00,,,0.00,meteohub,2013-08-31 11:21:00,
2013-08-31 05:26:00,46.6,43.9,31.17,NW,315,2.0,4.0,90,0.00,,,0.00,meteohub,2013-08-31 11:26:00,
2013-08-31 05:31:00,46.4,43.7,31.17,North,0,4.0,4.0,90,0.00,,,0.00,meteohub,2013-08-31 11:31:00,
2013-08-31 05:36:00,46.0,43.3,31.17,East,90,1.0,4.0,90,0.00,,,0.00,meteohub,2013-08-31 11:36:00,
2013-08-31 05:41:00,45.9,43.2,31.17,North,0,2.0,4.0,90,0.00,,,0.00,meteohub,2013-08-31 11:41:00,
2013-08-31 05:46:00,45.7,43.0,31.17,North,0,1.0,4.0,90,0.00,,,0.00,meteohub,2013-08-31 11:46:00,
2013-08-31 05:51:00,45.7,43.0,31.17,NE,45,2.0,3.0,90,0.00,,,0.00,meteohub,2013-08-31 11:51:00,
2013-08-31 05:56:00,45.5,42.8,31.17,South,180,2.0,3.0,90,0.00,,,0.00,meteohub,2013-08-31 11:56:00,
2013-08-31 06:01:00,45.1,42.4,31.17,NW,315,3.0,3.0,90,0.00,,,0.00,meteohub,2013-08-31 12:01:00,
2013-08-31 06:06:00,45.1,42.4,31.17,NW,315,3.0,3.0,90,0.00,,,0.00,meteohub,2013-08-31 12:06:00,
2013-08-31 06:11:00,44.4,41.9,31.17,NW,315,3.0,3.0,91,0.00,,,0.00,meteohub,2013-08-31 12:11:00,
2013-08-31 06:16:00,44.2,41.7,31.17,North,0,2.0,3.0,91,0.00,,,0.00,meteohub,2013-08-31 12:16:00,
2013-08-31 06:21:00,44.1,41.5,31.18,NE,45,3.0,3.0,91,0.00,,,0.00,meteohub,2013-08-31 12:21:00,
2013-08-31 06:26:00,43.9,41.4,31.18,East,90,2.0,4.0,91,0.00,,,0.00,meteohub,2013-08-31 12:26:00,
2013-08-31 06:31:00,43.7,41.2,31.18,NW,315,0.0,4.0,91,0.00,,,0.00,meteohub,2013-08-31 12:31:00,
2013-08-31 06:36:00,43.7,41.2,31.18,NE,45,2.0,4.0,91,0.00,,,0.00,meteohub,2013-08-31 12:36:00,
2013-08-31 06:41:00,43.5,41.0,31.18,North,0,2.0,4.0,91,0.00,,,0.00,meteohub,2013-08-31 12:41:00,
2013-08-31 06:46:00,43.7,41.5,31.18,NW,315,2.0,2.0,92,0.00,,,0.00,meteohub,2013-08-31 12:46:00,
2013-08-31 06:51:00,43.7,41.5,31.17,NW,315,0.0,3.0,92,0.00,,,0.00,meteohub,2013-08-31 12:51:00,
2013-08-31 06:56:00,43.9,41.7,31.18,North,0,3.0,3.0,92,0.00,,,0.00,meteohub,2013-08-31 12:56:00,
2013-08-31 07:01:00,44.2,42.3,31.18,North,0,4.0,4.0,93,0.00,,,0.00,meteohub,2013-08-31 13:01:00,
2013-08-31 07:06:00,44.2,42.3,31.18,NW,315,0.0,4.0,93,0.00,,,0.00,meteohub,2013-08-31 13:06:00,
2013-08-31 07:11:00,44.1,42.1,31.18,North,0,0.0,4.0,93,0.00,,,0.00,meteohub,2013-08-31 13:11:00,
2013-08-31 07:16:00,44.1,42.1,31.18,North,0,0.0,4.0,93,0.00,,,0.00,meteohub,2013-08-31 13:16:00,
2013-08-31 07:21:00,43.7,41.7,31.18,North,0,2.0,2.0,93,0.00,,,0.00,meteohub,2013-08-31 13:21:00,
2013-08-31 07:26:00,43.9,41.9,31.18,North,0,2.0,2.0,93,0.00,,,0.00,meteohub,2013-08-31 13:26:00,
2013-08-31 07:31:00,44.1,42.1,31.19,North,0,4.0,4.0,93,0.00,,,0.00,meteohub,2013-08-31 13:31:00,
2013-08-31 07:36:00,44.6,42.4,31.18,NE,45,3.0,4.0,92,0.00,,,0.00,meteohub,2013-08-31 13:36:00,
2013-08-31 07:41:00,45.1,43.2,31.19,ENE,68,3.0,4.0,93,0.00,,,0.00,meteohub,2013-08-31 13:41:00,
2013-08-31 07:46:00,45.9,43.9,31.18,North,0,2.0,4.0,93,0.00,,,0.00,meteohub,2013-08-31 13:46:00,
2013-08-31 07:51:00,46.2,44.2,31.18,NE,45,2.0,4.0,93,0.00,,,0.00,meteohub,2013-08-31 13:51:00,
2013-08-31 07:56:00,46.4,44.4,31.18,West,270,2.0,4.0,93,0.00,,,0.00,meteohub,2013-08-31 13:56:00,
2013-08-31 08:02:00,46.0,44.1,31.19,NW,315,0.0,3.0,93,0.00,,,0.00,meteohub,2013-08-31 14:02:00,
2013-08-31 08:07:00,46.0,44.1,31.19,NW,315,0.0,2.0,93,0.00,,,0.00,meteohub,2013-08-31 14:07:00,
2013-08-31 08:12:00,46.6,44.6,31.19,NW,315,0.0,2.0,93,0.00,,,0.00,meteohub,2013-08-31 14:12:00,
2013-08-31 08:17:00,48.0,46.0,31.19,East,90,4.0,0.0,93,0.00,,,0.00,meteohub,2013-08-31 14:17:00,
2013-08-31 08:22:00,50.4,48.2,31.19,East,90,4.0,6.0,92,0.00,,,0.00,meteohub,2013-08-31 14:22:00,
2013-08-31 08:27:00,51.8,49.3,31.19,East,90,4.0,7.0,91,0.00,,,0.00,meteohub,2013-08-31 14:27:00,
2013-08-31 08:32:00,52.9,50.0,31.19,East,90,4.0,7.0,90,0.00,,,0.00,meteohub,2013-08-31 14:32:00,
2013-08-31 08:37:00,54.1,50.7,31.19,East,90,5.0,7.0,88,0.00,,,0.00,meteohub,2013-08-31 14:37:00,
2013-08-31 08:41:00,55.0,50.0,31.18,East,90,4.0,7.0,83,0.00,,,0.00,meteohub,2013-08-31 14:41:00,
2013-08-31 08:47:00,55.8,50.4,31.18,East,90,4.0,7.0,82,0.00,,,0.00,meteohub,2013-08-31 14:47:00,
2013-08-31 08:52:00,56.3,49.8,31.18,East,90,4.0,7.0,79,0.00,,,0.00,meteohub,2013-08-31 14:52:00,
2013-08-31 08:57:00,56.5,49.3,31.18,East,90,5.0,6.0,77,0.00,,,0.00,meteohub,2013-08-31 14:57:00,
2013-08-31 09:02:00,56.5,48.9,31.18,East,90,4.0,6.0,76,0.00,,,0.00,meteohub,2013-08-31 15:02:00,
2013-08-31 09:07:00,56.7,49.1,31.18,East,90,4.0,6.0,76,0.00,,,0.00,meteohub,2013-08-31 15:07:00,
2013-08-31 09:12:00,57.0,49.1,31.18,NE,45,3.0,5.0,75,0.00,,,0.00,meteohub,2013-08-31 15:12:00,
2013-08-31 09:17:00,57.6,48.9,31.18,East,90,3.0,5.0,73,0.01,,,0.01,meteohub,2013-08-31 15:17:00,
2013-08-31 09:22:00,58.1,49.1,31.18,East,90,4.0,5.0,72,0.01,,,0.01,meteohub,2013-08-31 15:22:00,
2013-08-31 09:27:00,59.2,49.5,31.18,South,180,2.0,4.0,70,0.01,,,0.01,meteohub,2013-08-31 15:27:00,
2013-08-31 09:32:00,60.3,50.4,31.18,NE,45,2.0,4.0,70,0.01,,,0.01,meteohub,2013-08-31 15:32:00,
2013-08-31 09:37:00,61.2,50.2,31.18,North,0,2.0,5.0,67,0.01,,,0.01,meteohub,2013-08-31 15:37:00,
2013-08-31 09:42:00,61.9,50.4,31.17,SE,135,2.0,5.0,66,0.01,,,0.01,meteohub,2013-08-31 15:42:00,
2013-08-31 09:47:00,62.4,50.5,31.17,SE,135,2.0,5.0,65,0.01,,,0.01,meteohub,2013-08-31 15:47:00,
2013-08-31 09:52:00,63.1,49.8,31.17,North,0,1.0,4.0,62,0.01,,,0.01,meteohub,2013-08-31 15:52:00,
2013-08-31 09:57:00,63.7,50.4,31.17,North,0,1.0,2.0,62,0.01,,,0.01,meteohub,2013-08-31 15:57:00,
2013-08-31 10:02:00,64.0,50.4,31.17,East,90,2.0,2.0,61,0.01,,,0.01,meteohub,2013-08-31 16:02:00,
2013-08-31 10:07:00,64.0,50.4,31.17,East,90,2.0,2.0,61,0.01,,,0.01,meteohub,2013-08-31 16:07:00,
2013-08-31 10:12:00,65.7,50.5,31.17,West,270,1.0,2.0,58,0.00,,,0.01,meteohub,2013-08-31 16:12:00,
2013-08-31 10:17:00,66.0,50.4,31.17,NW,315,2.0,3.0,57,0.00,,,0.01,meteohub,2013-08-31 16:17:00,
2013-08-31 10:22:00,66.6,50.4,31.17,South,180,0.0,3.0,56,0.00,,,0.01,meteohub,2013-08-31 16:22:00,
2013-08-31 10:27:00,67.3,51.4,31.17,South,180,3.0,3.0,57,0.00,,,0.01,meteohub,2013-08-31 16:27:00,
2013-08-31 10:32:00,67.6,50.9,31.16,South,180,3.0,3.0,55,0.00,,,0.01,meteohub,2013-08-31 16:32:00,
2013-08-31 10:37:00,67.6,49.5,31.16,SE,135,4.0,4.0,52,0.00,,,0.01,meteohub,2013-08-31 16:37:00,
2013-08-31 10:42:00,67.6,49.5,31.16,South,180,2.0,4.0,52,0.00,,,0.01,meteohub,2013-08-31 16:42:00,
2013-08-31 10:47:00,68.0,49.3,31.16,SW,225,4.0,4.0,51,0.00,,,0.01,meteohub,2013-08-31 16:47:00,
2013-08-31 10:52:00,68.5,49.6,31.16,SW,225,4.0,6.0,51,0.00,,,0.01,meteohub,2013-08-31 16:52:00,
2013-08-31 10:57:00,69.1,50.2,31.15,SW,225,4.0,6.0,51,0.00,,,0.01,meteohub,2013-08-31 16:57:00,
2013-08-31 11:02:00,69.6,49.6,31.15,West,270,4.0,6.0,49,0.00,,,0.01,meteohub,2013-08-31 17:02:00,
2013-08-31 11:07:00,70.3,49.1,31.16,West,270,5.0,8.0,47,0.00,,,0.01,meteohub,2013-08-31 17:07:00,
2013-08-31 11:12:00,70.7,47.7,31.16,West,270,4.0,8.0,44,0.00,,,0.01,meteohub,2013-08-31 17:12:00,
2013-08-31 11:17:00,71.1,46.8,31.15,South,180,5.0,7.0,42,0.00,,,0.01,meteohub,2013-08-31 17:17:00,
2013-08-31 11:22:00,71.4,48.4,31.15,SE,135,5.0,7.0,44,0.00,,,0.01,meteohub,2013-08-31 17:22:00,
2013-08-31 11:27:00,71.6,46.6,31.15,West,270,5.0,8.0,41,0.00,,,0.01,meteohub,2013-08-31 17:27:00,
2013-08-31 11:32:00,72.0,46.9,31.14,South,180,4.0,8.0,41,0.00,,,0.01,meteohub,2013-08-31 17:32:00,
2013-08-31 11:37:00,72.1,47.8,31.14,NW,315,6.0,8.0,42,0.00,,,0.01,meteohub,2013-08-31 17:37:00,
2013-08-31 11:42:00,72.3,46.6,31.15,NW,315,4.0,8.0,40,0.00,,,0.01,meteohub,2013-08-31 17:42:00,
2013-08-31 11:47:00,72.9,47.1,31.14,SW,225,8.0,8.0,40,0.00,,,0.01,meteohub,2013-08-31 17:47:00,
2013-08-31 11:52:00,73.0,47.3,31.14,SW,225,6.0,8.0,40,0.00,,,0.01,meteohub,2013-08-31 17:52:00,
2013-08-31 11:57:00,73.8,49.3,31.14,SW,225,6.0,8.0,42,0.00,,,0.01,meteohub,2013-08-31 17:57:00,
2013-08-31 12:02:00,73.4,48.2,31.14,West,270,6.0,8.0,41,0.00,,,0.01,meteohub,2013-08-31 18:02:00,
2013-08-31 12:07:00,72.1,47.1,31.14,NW,315,6.0,8.0,41,0.00,,,0.01,meteohub,2013-08-31 18:07:00,
2013-08-31 12:12:00,72.1,47.1,31.14,West,270,5.0,6.0,41,0.00,,,0.01,meteohub,2013-08-31 18:12:00,
2013-08-31 12:17:00,71.8,46.8,31.14,SW,225,4.0,6.0,41,0.00,,,0.01,meteohub,2013-08-31 18:17:00,
2013-08-31 12:22:00,71.2,47.7,31.14,SW,225,3.0,6.0,43,0.00,,,0.01,meteohub,2013-08-31 18:22:00,
2013-08-31 12:27:00,71.1,48.0,31.14,West,270,2.0,6.0,44,0.00,,,0.01,meteohub,2013-08-31 18:27:00,
2013-08-31 12:32:00,71.2,48.7,31.13,SSE,158,4.0,6.0,45,0.00,,,0.01,meteohub,2013-08-31 18:32:00,
2013-08-31 12:37:00,71.6,49.1,31.13,South,180,4.0,4.0,45,0.00,,,0.01,meteohub,2013-08-31 18:37:00,
2013-08-31 12:42:00,72.5,48.7,31.13,NNE,23,2.0,4.0,43,0.00,,,0.01,meteohub,2013-08-31 18:42:00,
2013-08-31 12:47:00,72.7,48.9,31.13,East,90,1.0,4.0,43,0.00,,,0.01,meteohub,2013-08-31 18:47:00,
2013-08-31 12:52:00,72.9,50.9,31.13,NE,45,1.0,4.0,46,0.00,,,0.01,meteohub,2013-08-31 18:52:00,
2013-08-31 12:57:00,72.3,48.0,31.13,SE,135,4.0,9.0,42,0.00,,,0.01,meteohub,2013-08-31 18:57:00,
2013-08-31 13:02:00,71.4,47.8,31.13,East,90,5.0,9.0,43,0.00,,,0.01,meteohub,2013-08-31 19:02:00,
2013-08-31 13:07:00,70.7,47.1,31.14,North,0,1.0,9.0,43,0.00,,,0.01,meteohub,2013-08-31 19:07:00,
2013-08-31 13:12:00,70.2,48.9,31.13,West,270,2.0,8.0,47,0.00,,,0.01,meteohub,2013-08-31 19:12:00,
2013-08-31 13:17:00,69.8,48.0,31.13,NW,315,2.0,8.0,46,0.00,,,0.01,meteohub,2013-08-31 19:17:00,
2013-08-31 13:22:00,69.3,49.8,31.14,SW,225,4.0,4.0,50,0.00,,,0.01,meteohub,2013-08-31 19:22:00,
2013-08-31 13:27:00,67.3,49.1,31.14,West,270,3.0,4.0,52,0.00,,,0.01,meteohub,2013-08-31 19:27:00,
2013-08-31 13:32:00,65.7,50.0,31.14,NW,315,2.0,5.0,57,0.00,,,0.01,meteohub,2013-08-31 19:32:00,
2013-08-31 13:37:00,64.2,50.0,31.14,NW,315,4.0,6.0,60,0.00,,,0.01,meteohub,2013-08-31 19:37:00,
2013-08-31 13:42:00,63.7,50.4,31.14,NW,315,3.0,6.0,62,0.00,,,0.01,meteohub,2013-08-31 19:42:00,
2013-08-31 13:47:00,63.3,49.6,31.14,NW,315,1.0,5.0,61,0.00,,,0.01,meteohub,2013-08-31 19:47:00,
2013-08-31 13:52:00,63.3,50.0,31.14,SW,225,0.0,5.0,62,0.00,,,0.01,meteohub,2013-08-31 19:52:00,
2013-08-31 13:57:00,63.3,50.9,31.14,North,0,1.0,3.0,64,0.00,,,0.01,meteohub,2013-08-31 19:57:00,
2013-08-31 14:02:00,63.3,50.9,31.14,North,0,0.0,2.0,64,0.00,,,0.01,meteohub,2013-08-31 20:02:00,
2013-08-31 14:08:00,63.5,52.3,31.14,North,0,2.0,2.0,67,0.00,,,0.01,meteohub,2013-08-31 20:08:00,
2013-08-31 14:13:00,63.5,52.0,31.14,NE,45,2.0,2.0,66,0.00,,,0.01,meteohub,2013-08-31 20:13:00,
2013-08-31 14:18:00,63.5,51.4,31.14,East,90,3.0,3.0,65,0.00,,,0.01,meteohub,2013-08-31 20:18:00,
2013-08-31 14:23:00,63.7,52.9,31.14,East,90,4.0,4.0,68,0.00,,,0.01,meteohub,2013-08-31 20:23:00,
2013-08-31 14:28:00,63.5,52.0,31.14,East,90,5.0,5.0,66,0.00,,,0.01,meteohub,2013-08-31 20:28:00,
2013-08-31 14:33:00,63.9,51.4,31.14,ENE,68,4.0,5.0,64,0.00,,,0.01,meteohub,2013-08-31 20:33:00,
2013-08-31 14:38:00,64.0,51.6,31.14,East,90,5.0,5.0,64,0.00,,,0.01,meteohub,2013-08-31 20:38:00,
2013-08-31 14:43:00,64.6,51.6,31.13,East,90,7.0,7.0,63,0.00,,,0.01,meteohub,2013-08-31 20:43:00,
2013-08-31 14:48:00,65.5,51.3,31.13,ENE,68,4.0,7.0,60,0.00,,,0.01,meteohub,2013-08-31 20:48:00,
2013-08-31 14:53:00,65.7,50.9,31.13,East,90,4.0,8.0,59,0.00,,,0.01,meteohub,2013-08-31 20:53:00,
2013-08-31 14:58:00,65.5,49.3,31.13,SE,135,4.0,8.0,56,0.00,,,0.01,meteohub,2013-08-31 20:58:00,
2013-08-31 15:03:00,65.5,49.3,31.13,SE,135,0.0,8.0,56,0.00,,,0.01,meteohub,2013-08-31 21:03:00,
2013-08-31 15:08:00,65.8,50.7,31.13,South,180,2.0,6.0,58,0.00,,,0.01,meteohub,2013-08-31 21:08:00,
2013-08-31 15:13:00,66.0,50.9,31.13,East,90,2.0,4.0,58,0.00,,,0.01,meteohub,2013-08-31 21:13:00,
2013-08-31 15:18:00,66.2,49.6,31.13,East,90,2.0,4.0,55,0.00,,,0.01,meteohub,2013-08-31 21:18:00,
2013-08-31 15:23:00,66.4,49.6,31.13,NE,45,0.0,4.0,55,0.00,,,0.01,meteohub,2013-08-31 21:23:00,
2013-08-31 15:28:00,66.4,50.2,31.13,NE,45,0.0,4.0,56,0.00,,,0.01,meteohub,2013-08-31 21:28:00,
2013-08-31 15:33:00,66.6,50.9,31.13,SE,135,2.0,4.0,57,0.00,,,0.01,meteohub,2013-08-31 21:33:00,
2013-08-31 15:38:00,66.4,49.6,31.13,East,90,3.0,3.0,55,0.00,,,0.01,meteohub,2013-08-31 21:38:00,
2013-08-31 15:43:00,66.4,49.3,31.13,NE,45,2.0,3.0,54,0.00,,,0.01,meteohub,2013-08-31 21:43:00,
2013-08-31 15:48:00,66.2,49.6,31.13,NE,45,2.0,3.0,55,0.00,,,0.01,meteohub,2013-08-31 21:48:00,
2013-08-31 15:53:00,66.0,49.8,31.13,NE,45,2.0,3.0,56,0.00,,,0.01,meteohub,2013-08-31 21:53:00,
2013-08-31 15:58:00,65.7,50.5,31.14,East,90,7.0,7.0,58,0.00,,,0.01,meteohub,2013-08-31 21:58:00,
2013-08-31 16:03:00,65.5,50.4,31.14,East,90,6.0,8.0,58,0.00,,,0.01,meteohub,2013-08-31 22:03:00,
2013-08-31 16:08:00,63.5,49.8,31.14,East,90,8.0,8.0,61,0.00,,,0.01,meteohub,2013-08-31 22:08:00,
2013-08-31 16:13:00,62.1,49.8,31.14,ENE,68,10.0,10.0,64,0.00,,,0.01,meteohub,2013-08-31 22:13:00,
2013-08-31 16:18:00,60.8,49.5,31.15,NE,45,6.0,11.0,66,0.00,,,0.01,meteohub,2013-08-31 22:18:00,
2013-08-31 16:23:00,60.1,50.2,31.15,North,0,6.0,11.0,70,0.01,,,0.02,meteohub,2013-08-31 22:23:00,
2013-08-31 16:28:00,59.7,50.4,31.15,NE,45,4.0,11.0,71,0.01,,,0.02,meteohub,2013-08-31 22:28:00,
2013-08-31 16:33:00,59.4,50.4,31.16,North,0,2.0,8.0,72,0.01,,,0.02,meteohub,2013-08-31 22:33:00,
2013-08-31 16:38:00,59.2,50.2,31.16,NE,45,4.0,6.0,72,0.01,,,0.02,meteohub,2013-08-31 22:38:00,
2013-08-31 16:43:00,59.2,50.5,31.16,NW,315,4.0,5.0,73,0.01,,,0.02,meteohub,2013-08-31 22:43:00,
2013-08-31 16:48:00,59.2,50.9,31.16,NE,45,5.0,5.0,74,0.01,,,0.02,meteohub,2013-08-31 22:48:00,
2013-08-31 16:53:00,59.5,51.3,31.16,North,0,4.0,5.0,74,0.01,,,0.02,meteohub,2013-08-31 22:53:00,
2013-08-31 16:58:00,59.9,51.6,31.16,NE,45,4.0,5.0,74,0.01,,,0.02,meteohub,2013-08-31 22:58:00,
2013-08-31 17:03:00,60.8,52.5,31.16,East,90,4.0,6.0,74,0.01,,,0.02,meteohub,2013-08-31 23:03:00,
2013-08-31 17:08:00,61.3,52.2,31.16,East,90,3.0,6.0,72,0.01,,,0.02,meteohub,2013-08-31 23:08:00,
2013-08-31 17:13:00,61.7,51.8,31.16,East,90,3.0,6.0,70,0.01,,,0.02,meteohub,2013-08-31 23:13:00,
2013-08-31 17:18:00,61.7,51.4,31.16,NE,45,2.0,6.0,69,0.00,,,0.02,meteohub,2013-08-31 23:18:00,
2013-08-31 17:24:00,61.5,50.9,31.16,East,90,3.0,6.0,68,0.00,,,0.02,meteohub,2013-08-31 23:24:00,
2013-08-31 17:29:00,61.3,50.4,31.16,East,90,2.0,6.0,67,0.00,,,0.02,meteohub,2013-08-31 23:29:00,
2013-08-31 17:34:00,61.3,50.4,31.16,NE,45,2.0,6.0,67,0.00,,,0.02,meteohub,2013-08-31 23:34:00,
2013-08-31 17:39:00,61.3,49.8,31.16,East,90,3.0,4.0,66,0.00,,,0.02,meteohub,2013-08-31 23:39:00,
2013-08-31 17:44:00,61.2,50.5,31.16,East,90,2.0,3.0,68,0.00,,,0.02,meteohub,2013-08-31 23:44:00,
2013-08-31 17:49:00,61.0,50.7,31.16,West,270,2.0,3.0,69,0.00,,,0.02,meteohub,2013-08-31 23:49:00,
2013-08-31 17:54:00,60.8,50.5,31.17,South,180,1.0,3.0,69,0.00,,,0.02,meteohub,2013-08-31 23:54:00,
2013-08-31 17:59:00,60.6,51.1,31.17,SW,225,5.0,5.0,71,0.00,,,0.02,meteohub,2013-08-31 23:59:00,
2013-08-31 18:04:00,60.4,51.1,31.17,NW,315,5.0,5.0,71,0.00,,,0.02,meteohub,2013-09-01 00:04:00,
2013-08-31 18:09:00,59.4,50.7,31.16,South,180,3.0,5.0,73,0.00,,,0.02,meteohub,2013-09-01 00:09:00,
2013-08-31 18:14:00,59.0,50.7,31.16,West,270,2.0,5.0,74,0.00,,,0.02,meteohub,2013-09-01 00:14:00,
2013-08-31 18:19:00,58.5,50.9,31.17,West,270,2.0,5.0,76,0.00,,,0.02,meteohub,2013-09-01 00:19:00,
2013-08-31 18:24:00,58.3,51.4,31.16,SW,225,2.0,5.0,78,0.00,,,0.02,meteohub,2013-09-01 00:24:00,
2013-08-31 18:29:00,58.3,51.4,31.16,West,270,1.0,3.0,78,0.00,,,0.02,meteohub,2013-09-01 00:29:00,
2013-08-31 18:34:00,58.5,51.3,31.16,SW,225,1.0,3.0,77,0.00,,,0.02,meteohub,2013-09-01 00:34:00,
2013-08-31 18:39:00,58.6,51.4,31.15,East,90,2.0,4.0,77,0.01,,,0.04,meteohub,2013-09-01 00:39:00,
2013-08-31 18:44:00,58.8,51.3,31.15,South,180,1.0,4.0,76,0.01,,,0.04,meteohub,2013-09-01 00:44:00,
2013-08-31 18:49:00,58.8,51.6,31.16,South,180,2.0,3.0,77,0.01,,,0.04,meteohub,2013-09-01 00:49:00,
2013-08-31 18:54:00,58.5,51.6,31.16,East,90,4.0,4.0,78,0.01,,,0.04,meteohub,2013-09-01 00:54:00,
2013-08-31 18:59:00,58.1,51.6,31.16,SE,135,4.0,4.0,79,0.01,,,0.04,meteohub,2013-09-01 00:59:00,
2013-08-31 19:04:00,57.7,50.9,31.16,North,0,5.0,5.0,78,0.01,,,0.04,meteohub,2013-09-01 01:04:00,
2013-08-31 19:09:00,57.6,49.6,31.16,NE,45,2.0,6.0,75,0.01,,,0.04,meteohub,2013-09-01 01:09:00,
2013-08-31 19:14:00,57.6,49.3,31.16,NE,45,3.0,7.0,74,0.01,,,0.04,meteohub,2013-09-01 01:14:00,
2013-08-31 19:19:00,57.2,48.9,31.16,NE,45,2.0,7.0,74,0.01,,,0.04,meteohub,2013-09-01 01:19:00,
2013-08-31 19:24:00,57.0,49.1,31.16,NE,45,2.0,7.0,75,0.01,,,0.04,meteohub,2013-09-01 01:24:00,
2013-08-31 19:29:00,57.0,49.5,31.16,NW,315,2.0,4.0,76,0.01,,,0.04,meteohub,2013-09-01 01:29:00,
2013-08-31 19:34:00,56.7,49.5,31.16,North,0,2.0,4.0,77,0.00,,,0.04,meteohub,2013-09-01 01:34:00,
2013-08-31 19:39:00,56.3,49.5,31.16,NE,45,2.0,4.0,78,0.00,,,0.04,meteohub,2013-09-01 01:39:00,
2013-08-31 19:44:00,56.1,49.3,31.16,North,0,3.0,4.0,78,0.00,,,0.04,meteohub,2013-09-01 01:44:00,
2013-08-31 19:49:00,56.1,49.6,31.16,NW,315,2.0,4.0,79,0.00,,,0.04,meteohub,2013-09-01 01:49:00,
2013-08-31 19:54:00,56.1,50.0,31.16,North,0,2.0,4.0,80,0.00,,,0.04,meteohub,2013-09-01 01:54:00,
2013-08-31 19:59:00,55.9,49.8,31.16,North,0,2.0,4.0,80,0.00,,,0.04,meteohub,2013-09-01 01:59:00,
2013-08-31 20:05:00,55.9,49.8,31.16,North,0,2.0,4.0,80,0.00,,,0.04,meteohub,2013-09-01 02:05:00,
2013-08-31 20:10:00,56.1,50.0,31.16,North,0,3.0,3.0,80,0.00,,,0.04,meteohub,2013-09-01 02:10:00,
2013-08-31 20:15:00,56.1,49.6,31.17,NW,315,3.0,3.0,79,0.00,,,0.04,meteohub,2013-09-01 02:15:00,
2013-08-31 20:20:00,56.3,49.8,31.16,NE,45,3.0,3.0,79,0.00,,,0.04,meteohub,2013-09-01 02:20:00,
2013-08-31 20:25:00,56.3,49.8,31.16,East,90,4.0,4.0,79,0.00,,,0.04,meteohub,2013-09-01 02:25:00,
2013-08-31 20:30:00,56.1,50.0,31.16,East,90,0.0,4.0,80,0.00,,,0.04,meteohub,2013-09-01 02:30:00,
2013-08-31 20:35:00,56.1,50.4,31.16,North,0,2.0,4.0,81,0.00,,,0.04,meteohub,2013-09-01 02:35:00,
2013-08-31 20:40:00,55.9,49.8,31.16,NE,45,2.0,4.0,80,0.00,,,0.04,meteohub,2013-09-01 02:40:00,
2013-08-31 20:45:00,55.9,49.8,31.16,North,0,2.0,4.0,80,0.00,,,0.04,meteohub,2013-09-01 02:45:00,
2013-08-31 20:50:00,55.8,49.6,31.16,ENE,68,2.0,2.0,80,0.00,,,0.04,meteohub,2013-09-01 02:50:00,
2013-08-31 20:55:00,55.6,49.1,31.16,North,0,2.0,2.0,79,0.00,,,0.04,meteohub,2013-09-01 02:55:00,
2013-08-31 21:00:00,55.2,48.7,31.16,North,0,2.0,3.0,79,0.00,,,0.04,meteohub,2013-09-01 03:00:00,
2013-08-31 21:05:00,55.0,48.6,31.17,NE,45,1.0,3.0,79,0.00,,,0.04,meteohub,2013-09-01 03:05:00,
2013-08-31 21:10:00,54.9,48.6,31.17,NW,315,2.0,3.0,79,0.00,,,0.04,meteohub,2013-09-01 03:10:00,
2013-08-31 21:15:00,54.5,47.8,31.17,North,0,2.0,2.0,78,0.00,,,0.04,meteohub,2013-09-01 03:15:00,
2013-08-31 21:20:00,54.3,47.7,31.16,East,90,4.0,5.0,78,0.00,,,0.04,meteohub,2013-09-01 03:20:00,
2013-08-31 21:25:00,54.3,48.0,31.17,NE,45,4.0,6.0,79,0.00,,,0.04,meteohub,2013-09-01 03:25:00,
2013-08-31 21:30:00,54.5,47.8,31.16,NE,45,8.0,8.0,78,0.00,,,0.04,meteohub,2013-09-01 03:30:00,
2013-08-31 21:35:00,54.9,48.2,31.16,South,180,2.0,8.0,78,0.00,,,0.04,meteohub,2013-09-01 03:35:00,
2013-08-31 21:40:00,54.9,48.2,31.17,South,180,1.0,8.0,78,0.00,,,0.04,meteohub,2013-09-01 03:40:00,
2013-08-31 21:45:00,54.9,48.2,31.16,NE,45,1.0,5.0,78,0.00,,,0.04,meteohub,2013-09-01 03:45:00,
2013-08-31 21:50:00,54.7,48.0,31.16,North,0,2.0,2.0,78,0.00,,,0.04,meteohub,2013-09-01 03:50:00,
2013-08-31 21:55:00,54.3,48.0,31.16,North,0,2.0,2.0,79,0.00,,,0.04,meteohub,2013-09-01 03:55:00,
2013-08-31 22:00:00,54.3,48.0,31.16,North,0,2.0,3.0,79,0.00,,,0.04,meteohub,2013-09-01 04:00:00,
2013-08-31 22:01:00,54.3,48.0,31.16,North,0,2.0,3.0,79,0.00,,,0.04,meteohub,2013-09-01 04:01:00,
2013-08-31 22:06:00,54.3,48.0,31.16,North,0,2.0,3.0,79,0.00,,,0.04,meteohub,2013-09-01 04:06:00,
2013-08-31 22:11:00,54.0,47.7,31.16,North,0,2.0,4.0,79,0.00,,,0.04,meteohub,2013-09-01 04:11:00,
2013-08-31 22:16:00,54.1,47.8,31.16,East,90,2.0,4.0,79,0.00,,,0.04,meteohub,2013-09-01 04:16:00,
2013-08-31 22:21:00,54.0,47.3,31.16,NE,45,4.0,4.0,78,0.00,,,0.04,meteohub,2013-09-01 04:21:00,
2013-08-31 22:26:00,53.6,46.9,31.16,NE,45,3.0,5.0,78,0.00,,,0.04,meteohub,2013-09-01 04:26:00,
2013-08-31 22:32:00,53.4,47.5,31.16,NE,45,3.0,5.0,80,0.00,,,0.04,meteohub,2013-09-01 04:32:00,
2013-08-31 22:37:00,53.2,46.9,31.15,East,90,2.0,5.0,79,0.00,,,0.04,meteohub,2013-09-01 04:37:00,
2013-08-31 22:41:00,53.1,46.8,31.16,NE,45,2.0,4.0,79,0.00,,,0.04,meteohub,2013-09-01 04:41:00,
2013-08-31 22:46:00,52.9,46.6,31.16,NE,45,2.0,4.0,79,0.00,,,0.04,meteohub,2013-09-01 04:46:00,
2013-08-31 22:52:00,52.9,46.6,31.16,North,0,2.0,4.0,79,0.00,,,0.04,meteohub,2013-09-01 04:52:00,
2013-08-31 22:57:00,52.9,46.6,31.16,North,0,3.0,4.0,79,0.00,,,0.04,meteohub,2013-09-01 04:57:00,
2013-08-31 23:02:00,52.7,46.4,31.16,West,270,2.0,3.0,79,0.00,,,0.04,meteohub,2013-09-01 05:02:00,
2013-08-31 23:07:00,52.7,46.4,31.15,SE,135,2.0,3.0,79,0.00,,,0.04,meteohub,2013-09-01 05:07:00,
2013-08-31 23:12:00,52.5,46.2,31.15,NE,45,3.0,3.0,79,0.00,,,0.04,meteohub,2013-09-01 05:12:00,
2013-08-31 23:17:00,52.2,45.9,31.15,North,0,2.0,3.0,79,0.00,,,0.04,meteohub,2013-09-01 05:17:00,
2013-08-31 23:22:00,51.8,45.5,31.15,North,0,4.0,4.0,79,0.00,,,0.04,meteohub,2013-09-01 05:22:00,
2013-08-31 23:27:00,51.4,45.5,31.15,East,90,3.0,4.0,80,0.00,,,0.04,meteohub,2013-09-01 05:27:00,
2013-08-31 23:32:00,51.3,45.3,31.16,NE,45,4.0,4.0,80,0.00,,,0.04,meteohub,2013-09-01 05:32:00,
2013-08-31 23:37:00,51.6,46.0,31.15,NE,45,2.0,6.0,81,0.00,,,0.04,meteohub,2013-09-01 05:37:00,
2013-08-31 23:38:00,51.6,46.0,31.15,East,90,2.0,6.0,81,0.00,,,0.04,meteohub,2013-09-01 05:38:00,
2013-08-31 23:43:00,51.6,46.0,31.15,North,0,3.0,6.0,81,0.00,,,0.04,meteohub,2013-09-01 05:43:00,
2013-08-31 23:48:00,51.4,45.9,31.16,North,0,4.0,6.0,81,0.00,,,0.04,meteohub,2013-09-01 05:48:00,
2013-08-31 23:53:00,51.4,45.9,31.16,ENE,68,4.0,4.0,81,0.00,,,0.04,meteohub,2013-09-01 05:53:00,
2013-08-31 23:58:00,51.4,45.9,31.16,NE,45,5.0,5.0,81,0.00,,,0.04,meteohub,2013-09-01 05:58:00,